Halima K — HPDM — position and weather

sailwx.info

Track history (hours):
 
Tides and Currents Weather Stations Pressure Air Temp Water Temp Dewpoint Dewpoint Depression Visibility Wind Speed Wind Dir Waves Ship Positions

Halima K

Last reported at 2014-Sep-06 07:33 UTC. Time now 2014-Sep-22 10:14 UTC.
Position N 37°30' E 025°56'.
Warning: this ship's position is 16 days out of date.

Length 130 m; draft 5 m.

Type: Cargo ship. MMSI: 352444000.

Date/timePositionNaut miles runAvg speedWind from/ knotsBaromVisibWave heightAir tempDewpointWater temp
2014-Sep-06 07:33N 37°30' E 025°56'10 9.8
2014-Sep-06 06:33N 37°23' E 026°04'1010.0
2014-Sep-06 05:31N 37°16' E 026°14'10 9.9
2014-Sep-06 04:33N 37°09' E 026°22'11 9.1
2014-Sep-06 03:23N 37°02' E 026°32'8 8.8
2014-Sep-06 02:30N 36°55' E 026°37'340 9.0
2014-Sep-04 12:32N 31°47' E 029°32'9 9.4
2014-Sep-04 11:32N 31°38' E 029°35'28 3.1
2014-Sep-04 02:27N 31°11' E 029°44'0 0.0
2014-Sep-04 01:06N 31°11' E 029°44'0 0.0
2014-Sep-04 00:33N 31°11' E 029°44'0 0.0
2014-Sep-03 23:32N 31°11' E 029°44'0 0.0
2014-Sep-03 22:29N 31°11' E 029°44'0 0.0
2014-Sep-03 21:17N 31°11' E 029°44'0 0.0
2014-Sep-03 20:32N 31°11' E 029°44'0 0.0
2014-Sep-03 19:14N 31°11' E 029°44'0 0.0
2014-Sep-03 17:14N 31°11' E 029°44'0 0.0
2014-Sep-03 12:19N 31°11' E 029°44'0 0.0
2014-Sep-03 10:04N 31°11' E 029°44'  
2014-Aug-28 02:09N 36°43' E 026°27'7 9.8
2014-Aug-28 01:24N 36°49' E 026°21'8 9.9
2014-Aug-28 00:33N 36°56' E 026°14'9 9.3
2014-Aug-27 23:34N 37°04' E 026°09'9 9.2
2014-Aug-27 22:34N 37°12' E 026°05'9 9.1
2014-Aug-27 21:34N 37°21' E 026°00'9 9.1
2014-Aug-27 20:33N 37°29' E 025°56'9 9.3
2014-Aug-27 19:33N 37°38' E 025°53'9 8.9
2014-Aug-27 18:31N 37°47' E 025°51'26 8.9
2014-Aug-27 15:33N 38°14' E 025°46'9 9.6
2014-Aug-27 14:34N 38°23' E 025°45'10 9.7
2014-Aug-27 13:33N 38°33' E 025°44'10 9.2
2014-Aug-27 12:30N 38°42' E 025°44'  
Track history (hours):
 
Tides and Currents Weather Stations Pressure Air Temp Water Temp Dewpoint Dewpoint Depression Visibility Wind Speed Wind Dir Waves Ship Positions

Halima K

Last reported at 2014-Sep-06 07:33 UTC. Time now 2014-Sep-22 10:14 UTC.
Position N 37°30' E 025°56'.
Warning: this ship's position is 16 days out of date.

Length 130 m; draft 5 m.

Type: Cargo ship. MMSI: 352444000.

Date/timePositionNaut miles runAvg speedWind from/ knotsBaromVisibWave heightAir tempDewpointWater temp
2014-Sep-06 07:33N 37°30' E 025°56'10 9.8
2014-Sep-06 06:33N 37°23' E 026°04'1010.0
2014-Sep-06 05:31N 37°16' E 026°14'10 9.9
2014-Sep-06 04:33N 37°09' E 026°22'11 9.1
2014-Sep-06 03:23N 37°02' E 026°32'8 8.8
2014-Sep-06 02:30N 36°55' E 026°37'340 9.0
2014-Sep-04 12:32N 31°47' E 029°32'9 9.4
2014-Sep-04 11:32N 31°38' E 029°35'28 3.1
2014-Sep-04 02:27N 31°11' E 029°44'0 0.0
2014-Sep-04 01:06N 31°11' E 029°44'0 0.0
2014-Sep-04 00:33N 31°11' E 029°44'0 0.0
2014-Sep-03 23:32N 31°11' E 029°44'0 0.0
2014-Sep-03 22:29N 31°11' E 029°44'0 0.0
2014-Sep-03 21:17N 31°11' E 029°44'0 0.0
2014-Sep-03 20:32N 31°11' E 029°44'0 0.0
2014-Sep-03 19:14N 31°11' E 029°44'0 0.0
2014-Sep-03 17:14N 31°11' E 029°44'0 0.0
2014-Sep-03 12:19N 31°11' E 029°44'0 0.0
2014-Sep-03 10:04N 31°11' E 029°44'  
2014-Aug-28 02:09N 36°43' E 026°27'7 9.8
2014-Aug-28 01:24N 36°49' E 026°21'8 9.9
2014-Aug-28 00:33N 36°56' E 026°14'9 9.3
2014-Aug-27 23:34N 37°04' E 026°09'9 9.2
2014-Aug-27 22:34N 37°12' E 026°05'9 9.1
2014-Aug-27 21:34N 37°21' E 026°00'9 9.1
2014-Aug-27 20:33N 37°29' E 025°56'9 9.3
2014-Aug-27 19:33N 37°38' E 025°53'9 8.9
2014-Aug-27 18:31N 37°47' E 025°51'26 8.9
2014-Aug-27 15:33N 38°14' E 025°46'9 9.6
2014-Aug-27 14:34N 38°23' E 025°45'10 9.7
2014-Aug-27 13:33N 38°33' E 025°44'10 9.2
2014-Aug-27 12:30N 38°42' E 025°44'  

Dump ship's entire track history